sensor_id;sensor_type;location;lat;lon;timestamp;temperature;humidity
16901;DHT22;8567;52.540;6.434;2024-01-06T00:01:10;17.90;56.20
16901;DHT22;8567;52.540;6.434;2024-01-06T00:03:37;17.90;56.20
16901;DHT22;8567;52.540;6.434;2024-01-06T00:06:05;17.90;56.20
16901;DHT22;8567;52.540;6.434;2024-01-06T00:08:32;17.90;56.10
16901;DHT22;8567;52.540;6.434;2024-01-06T00:10:59;17.90;56.00
16901;DHT22;8567;52.540;6.434;2024-01-06T00:13:28;17.90;56.30
16901;DHT22;8567;52.540;6.434;2024-01-06T00:15:55;17.90;56.30
16901;DHT22;8567;52.540;6.434;2024-01-06T00:18:23;17.90;56.10
16901;DHT22;8567;52.540;6.434;2024-01-06T00:20:50;17.90;56.00
16901;DHT22;8567;52.540;6.434;2024-01-06T00:23:17;17.90;56.30
16901;DHT22;8567;52.540;6.434;2024-01-06T00:25:44;17.90;56.00
16901;DHT22;8567;52.540;6.434;2024-01-06T00:28:11;17.90;56.20
16901;DHT22;8567;52.540;6.434;2024-01-06T00:30:38;17.90;56.30
16901;DHT22;8567;52.540;6.434;2024-01-06T00:33:05;17.90;56.30
16901;DHT22;8567;52.540;6.434;2024-01-06T00:35:33;17.90;56.30
16901;DHT22;8567;52.540;6.434;2024-01-06T00:38:00;17.90;56.30
16901;DHT22;8567;52.540;6.434;2024-01-06T00:40:28;17.90;56.20
16901;DHT22;8567;52.540;6.434;2024-01-06T00:42:55;17.90;56.30
16901;DHT22;8567;52.540;6.434;2024-01-06T00:45:22;17.90;56.30
16901;DHT22;8567;52.540;6.434;2024-01-06T00:47:48;17.90;56.30
16901;DHT22;8567;52.540;6.434;2024-01-06T00:50:15;17.90;56.10
16901;DHT22;8567;52.540;6.434;2024-01-06T00:52:46;17.90;56.10
16901;DHT22;8567;52.540;6.434;2024-01-06T00:55:13;17.90;56.10
16901;DHT22;8567;52.540;6.434;2024-01-06T00:57:39;17.90;56.10
16901;DHT22;8567;52.540;6.434;2024-01-06T01:00:07;17.90;56.10
16901;DHT22;8567;52.540;6.434;2024-01-06T01:02:34;17.90;55.80
16901;DHT22;8567;52.540;6.434;2024-01-06T01:05:01;17.90;56.10
16901;DHT22;8567;52.540;6.434;2024-01-06T01:07:28;17.90;56.00
16901;DHT22;8567;52.540;6.434;2024-01-06T01:09:57;17.90;55.90
16901;DHT22;8567;52.540;6.434;2024-01-06T01:12:24;17.90;56.00
16901;DHT22;8567;52.540;6.434;2024-01-06T01:14:51;17.90;55.80
16901;DHT22;8567;52.540;6.434;2024-01-06T01:17:18;17.90;55.70
16901;DHT22;8567;52.540;6.434;2024-01-06T01:19:45;17.90;55.60
16901;DHT22;8567;52.540;6.434;2024-01-06T01:22:14;17.90;55.40
16901;DHT22;8567;52.540;6.434;2024-01-06T01:24:41;17.90;55.60
16901;DHT22;8567;52.540;6.434;2024-01-06T01:27:09;17.90;55.60
16901;DHT22;8567;52.540;6.434;2024-01-06T01:29:36;17.90;55.60
16901;DHT22;8567;52.540;6.434;2024-01-06T01:32:04;17.90;55.60
16901;DHT22;8567;52.540;6.434;2024-01-06T01:34:31;17.80;55.50
16901;DHT22;8567;52.540;6.434;2024-01-06T01:36:59;17.90;55.60
16901;DHT22;8567;52.540;6.434;2024-01-06T01:39:26;17.90;55.60
16901;DHT22;8567;52.540;6.434;2024-01-06T01:41:53;17.90;55.60
16901;DHT22;8567;52.540;6.434;2024-01-06T01:44:21;17.90;55.60
16901;DHT22;8567;52.540;6.434;2024-01-06T01:46:48;17.90;55.70
16901;DHT22;8567;52.540;6.434;2024-01-06T01:49:15;17.90;55.80
16901;DHT22;8567;52.540;6.434;2024-01-06T01:51:42;17.90;55.70
16901;DHT22;8567;52.540;6.434;2024-01-06T01:54:10;17.90;55.70
16901;DHT22;8567;52.540;6.434;2024-01-06T01:56:39;17.90;55.70
16901;DHT22;8567;52.540;6.434;2024-01-06T01:59:10;17.90;55.80
16901;DHT22;8567;52.540;6.434;2024-01-06T02:01:39;17.90;55.70
16901;DHT22;8567;52.540;6.434;2024-01-06T02:04:08;17.90;55.60
16901;DHT22;8567;52.540;6.434;2024-01-06T02:06:35;17.90;55.60
16901;DHT22;8567;52.540;6.434;2024-01-06T02:09:02;17.90;55.70
16901;DHT22;8567;52.540;6.434;2024-01-06T02:11:28;17.90;55.60
16901;DHT22;8567;52.540;6.434;2024-01-06T02:13:55;17.90;55.70
16901;DHT22;8567;52.540;6.434;2024-01-06T02:16:22;17.90;55.70
16901;DHT22;8567;52.540;6.434;2024-01-06T02:18:50;17.90;55.70
16901;DHT22;8567;52.540;6.434;2024-01-06T02:21:18;17.90;55.80
16901;DHT22;8567;52.540;6.434;2024-01-06T02:23:49;17.90;55.80
16901;DHT22;8567;52.540;6.434;2024-01-06T02:26:16;17.90;55.70
16901;DHT22;8567;52.540;6.434;2024-01-06T02:28:43;17.90;55.50
16901;DHT22;8567;52.540;6.434;2024-01-06T02:31:13;17.90;55.50
16901;DHT22;8567;52.540;6.434;2024-01-06T02:33:40;17.90;55.50
16901;DHT22;8567;52.540;6.434;2024-01-06T02:36:07;17.90;55.50
16901;DHT22;8567;52.540;6.434;2024-01-06T02:38:34;17.90;55.60
16901;DHT22;8567;52.540;6.434;2024-01-06T02:41:02;17.90;55.40
16901;DHT22;8567;52.540;6.434;2024-01-06T02:43:29;17.90;55.50
16901;DHT22;8567;52.540;6.434;2024-01-06T02:45:56;17.90;55.30
16901;DHT22;8567;52.540;6.434;2024-01-06T02:48:23;17.90;55.40
16901;DHT22;8567;52.540;6.434;2024-01-06T02:50:49;17.90;55.40
16901;DHT22;8567;52.540;6.434;2024-01-06T02:53:16;17.90;55.50
16901;DHT22;8567;52.540;6.434;2024-01-06T02:55:43;17.90;55.40
16901;DHT22;8567;52.540;6.434;2024-01-06T02:58:13;17.90;55.40
16901;DHT22;8567;52.540;6.434;2024-01-06T03:00:40;17.90;55.40
16901;DHT22;8567;52.540;6.434;2024-01-06T03:03:10;17.90;55.50
16901;DHT22;8567;52.540;6.434;2024-01-06T03:05:39;17.90;55.40
16901;DHT22;8567;52.540;6.434;2024-01-06T03:08:14;17.90;55.30
16901;DHT22;8567;52.540;6.434;2024-01-06T03:10:41;17.90;55.50
16901;DHT22;8567;52.540;6.434;2024-01-06T03:13:09;17.90;55.50
16901;DHT22;8567;52.540;6.434;2024-01-06T03:15:37;17.90;55.50
16901;DHT22;8567;52.540;6.434;2024-01-06T03:18:04;17.90;55.40
16901;DHT22;8567;52.540;6.434;2024-01-06T03:20:31;17.90;55.60
16901;DHT22;8567;52.540;6.434;2024-01-06T03:22:58;17.90;55.40
16901;DHT22;8567;52.540;6.434;2024-01-06T03:25:25;17.90;55.40
16901;DHT22;8567;52.540;6.434;2024-01-06T03:27:52;17.90;55.50
16901;DHT22;8567;52.540;6.434;2024-01-06T03:30:19;17.90;55.60
16901;DHT22;8567;52.540;6.434;2024-01-06T03:32:47;17.90;55.50
16901;DHT22;8567;52.540;6.434;2024-01-06T03:35:14;17.90;55.50
16901;DHT22;8567;52.540;6.434;2024-01-06T03:37:41;17.90;55.40
16901;DHT22;8567;52.540;6.434;2024-01-06T03:40:12;17.90;55.50
16901;DHT22;8567;52.540;6.434;2024-01-06T03:42:39;17.90;55.30
16901;DHT22;8567;52.540;6.434;2024-01-06T03:45:07;17.90;55.60
16901;DHT22;8567;52.540;6.434;2024-01-06T03:47:33;17.90;55.30
16901;DHT22;8567;52.540;6.434;2024-01-06T03:50:02;17.90;55.30
16901;DHT22;8567;52.540;6.434;2024-01-06T03:52:29;17.90;55.40
16901;DHT22;8567;52.540;6.434;2024-01-06T03:54:56;17.90;55.40
16901;DHT22;8567;52.540;6.434;2024-01-06T03:57:23;17.90;55.60
16901;DHT22;8567;52.540;6.434;2024-01-06T03:59:49;17.90;55.40
16901;DHT22;8567;52.540;6.434;2024-01-06T04:02:16;17.90;55.40
16901;DHT22;8567;52.540;6.434;2024-01-06T04:04:43;17.90;55.60
16901;DHT22;8567;52.540;6.434;2024-01-06T04:07:12;17.90;55.30
16901;DHT22;8567;52.540;6.434;2024-01-06T04:09:42;17.90;55.50
16901;DHT22;8567;52.540;6.434;2024-01-06T04:12:09;17.90;55.30
16901;DHT22;8567;52.540;6.434;2024-01-06T04:14:36;17.90;55.50
16901;DHT22;8567;52.540;6.434;2024-01-06T04:17:03;17.90;55.20
16901;DHT22;8567;52.540;6.434;2024-01-06T04:19:30;17.90;55.50
16901;DHT22;8567;52.540;6.434;2024-01-06T04:21:57;17.90;55.30
16901;DHT22;8567;52.540;6.434;2024-01-06T04:24:25;17.90;55.20
16901;DHT22;8567;52.540;6.434;2024-01-06T04:26:52;17.90;55.20
16901;DHT22;8567;52.540;6.434;2024-01-06T04:29:19;17.90;55.10
16901;DHT22;8567;52.540;6.434;2024-01-06T04:31:45;17.90;55.20
16901;DHT22;8567;52.540;6.434;2024-01-06T04:34:12;17.90;55.10
16901;DHT22;8567;52.540;6.434;2024-01-06T04:36:39;17.90;55.00
16901;DHT22;8567;52.540;6.434;2024-01-06T04:39:06;17.90;55.20
16901;DHT22;8567;52.540;6.434;2024-01-06T04:41:34;17.90;55.10
16901;DHT22;8567;52.540;6.434;2024-01-06T04:44:01;17.90;55.30
16901;DHT22;8567;52.540;6.434;2024-01-06T04:46:28;17.90;55.30
16901;DHT22;8567;52.540;6.434;2024-01-06T04:48:56;17.90;55.40
16901;DHT22;8567;52.540;6.434;2024-01-06T04:51:23;17.90;55.40
16901;DHT22;8567;52.540;6.434;2024-01-06T04:53:50;17.90;55.70
16901;DHT22;8567;52.540;6.434;2024-01-06T04:56:18;17.90;55.50
16901;DHT22;8567;52.540;6.434;2024-01-06T04:58:46;17.90;55.70
16901;DHT22;8567;52.540;6.434;2024-01-06T05:01:14;17.90;55.70
16901;DHT22;8567;52.540;6.434;2024-01-06T05:03:41;17.90;55.90
16901;DHT22;8567;52.540;6.434;2024-01-06T05:06:08;17.90;55.80
16901;DHT22;8567;52.540;6.434;2024-01-06T05:08:34;17.90;56.00
16901;DHT22;8567;52.540;6.434;2024-01-06T05:11:05;17.90;55.80
16901;DHT22;8567;52.540;6.434;2024-01-06T05:13:32;17.90;55.90
16901;DHT22;8567;52.540;6.434;2024-01-06T05:16:00;17.90;55.70
16901;DHT22;8567;52.540;6.434;2024-01-06T05:18:29;17.90;55.70
16901;DHT22;8567;52.540;6.434;2024-01-06T05:20:57;17.90;55.80
16901;DHT22;8567;52.540;6.434;2024-01-06T05:23:24;17.90;55.70
16901;DHT22;8567;52.540;6.434;2024-01-06T05:25:51;17.90;55.90
16901;DHT22;8567;52.540;6.434;2024-01-06T05:28:18;17.90;55.80
16901;DHT22;8567;52.540;6.434;2024-01-06T05:30:45;17.90;55.70
16901;DHT22;8567;52.540;6.434;2024-01-06T05:33:15;17.90;55.80
16901;DHT22;8567;52.540;6.434;2024-01-06T05:35:42;17.90;55.70
16901;DHT22;8567;52.540;6.434;2024-01-06T05:38:09;17.90;55.60
16901;DHT22;8567;52.540;6.434;2024-01-06T05:40:36;17.90;55.60
16901;DHT22;8567;52.540;6.434;2024-01-06T05:43:03;17.90;55.50
16901;DHT22;8567;52.540;6.434;2024-01-06T05:45:31;17.90;55.60
16901;DHT22;8567;52.540;6.434;2024-01-06T05:47:58;17.90;55.60
16901;DHT22;8567;52.540;6.434;2024-01-06T05:50:27;17.90;55.30
16901;DHT22;8567;52.540;6.434;2024-01-06T05:52:54;17.90;55.40
16901;DHT22;8567;52.540;6.434;2024-01-06T05:55:21;17.90;55.30
16901;DHT22;8567;52.540;6.434;2024-01-06T05:57:48;17.90;55.10
16901;DHT22;8567;52.540;6.434;2024-01-06T06:00:15;17.90;55.20
16901;DHT22;8567;52.540;6.434;2024-01-06T06:02:43;17.90;55.10
16901;DHT22;8567;52.540;6.434;2024-01-06T06:05:09;17.90;55.00
16901;DHT22;8567;52.540;6.434;2024-01-06T06:07:38;17.90;54.90
16901;DHT22;8567;52.540;6.434;2024-01-06T06:10:07;17.90;54.70
16901;DHT22;8567;52.540;6.434;2024-01-06T06:12:34;17.90;54.60
16901;DHT22;8567;52.540;6.434;2024-01-06T06:15:01;17.90;54.70
16901;DHT22;8567;52.540;6.434;2024-01-06T06:17:29;17.90;54.70
16901;DHT22;8567;52.540;6.434;2024-01-06T06:19:56;17.90;54.70
16901;DHT22;8567;52.540;6.434;2024-01-06T06:22:23;17.90;54.60
16901;DHT22;8567;52.540;6.434;2024-01-06T06:24:53;17.90;54.50
16901;DHT22;8567;52.540;6.434;2024-01-06T06:27:20;17.90;54.60
16901;DHT22;8567;52.540;6.434;2024-01-06T06:29:47;17.90;54.50
16901;DHT22;8567;52.540;6.434;2024-01-06T06:32:14;17.90;54.40
16901;DHT22;8567;52.540;6.434;2024-01-06T06:34:41;17.90;54.40
16901;DHT22;8567;52.540;6.434;2024-01-06T06:37:08;17.90;54.30
16901;DHT22;8567;52.540;6.434;2024-01-06T06:39:35;17.90;54.20
16901;DHT22;8567;52.540;6.434;2024-01-06T06:42:04;17.90;54.20
16901;DHT22;8567;52.540;6.434;2024-01-06T06:44:31;17.90;54.30
16901;DHT22;8567;52.540;6.434;2024-01-06T06:46:58;17.90;54.40
16901;DHT22;8567;52.540;6.434;2024-01-06T06:49:24;17.90;54.40
16901;DHT22;8567;52.540;6.434;2024-01-06T06:51:51;17.90;54.20
16901;DHT22;8567;52.540;6.434;2024-01-06T06:54:18;17.90;54.20
16901;DHT22;8567;52.540;6.434;2024-01-06T06:56:46;17.90;54.20
16901;DHT22;8567;52.540;6.434;2024-01-06T06:59:14;17.90;54.20
16901;DHT22;8567;52.540;6.434;2024-01-06T07:01:41;17.90;54.30
16901;DHT22;8567;52.540;6.434;2024-01-06T07:04:08;17.90;54.40
16901;DHT22;8567;52.540;6.434;2024-01-06T07:06:35;17.90;54.40
16901;DHT22;8567;52.540;6.434;2024-01-06T07:09:02;17.90;54.50
16901;DHT22;8567;52.540;6.434;2024-01-06T07:11:30;17.90;54.20
16901;DHT22;8567;52.540;6.434;2024-01-06T07:13:57;17.90;54.70
16901;DHT22;8567;52.540;6.434;2024-01-06T07:16:25;17.90;55.80
16901;DHT22;8567;52.540;6.434;2024-01-06T07:18:52;18.00;56.40
16901;DHT22;8567;52.540;6.434;2024-01-06T07:21:19;18.00;56.90
16901;DHT22;8567;52.540;6.434;2024-01-06T07:23:46;18.10;57.30
16901;DHT22;8567;52.540;6.434;2024-01-06T07:26:12;18.10;57.50
16901;DHT22;8567;52.540;6.434;2024-01-06T07:28:40;18.10;57.80
16901;DHT22;8567;52.540;6.434;2024-01-06T07:31:06;18.20;58.00
16901;DHT22;8567;52.540;6.434;2024-01-06T07:33:35;18.20;58.10
16901;DHT22;8567;52.540;6.434;2024-01-06T07:36:02;18.20;58.20
16901;DHT22;8567;52.540;6.434;2024-01-06T07:38:28;18.20;58.10
16901;DHT22;8567;52.540;6.434;2024-01-06T07:40:56;18.20;56.90
16901;DHT22;8567;52.540;6.434;2024-01-06T07:43:23;18.20;56.50
16901;DHT22;8567;52.540;6.434;2024-01-06T07:45:50;18.20;56.00
16901;DHT22;8567;52.540;6.434;2024-01-06T07:48:16;18.20;55.80
16901;DHT22;8567;52.540;6.434;2024-01-06T07:50:45;18.10;55.60
16901;DHT22;8567;52.540;6.434;2024-01-06T07:53:12;18.10;55.50
16901;DHT22;8567;52.540;6.434;2024-01-06T07:55:39;18.10;55.40
16901;DHT22;8567;52.540;6.434;2024-01-06T07:58:06;18.10;55.20
16901;DHT22;8567;52.540;6.434;2024-01-06T08:00:33;18.10;55.30
16901;DHT22;8567;52.540;6.434;2024-01-06T08:03:00;18.10;55.20
16901;DHT22;8567;52.540;6.434;2024-01-06T08:05:28;18.10;54.90
16901;DHT22;8567;52.540;6.434;2024-01-06T08:07:56;18.10;54.90
16901;DHT22;8567;52.540;6.434;2024-01-06T08:10:23;18.20;54.90
16901;DHT22;8567;52.540;6.434;2024-01-06T08:12:49;18.20;54.80
16901;DHT22;8567;52.540;6.434;2024-01-06T08:15:15;18.10;54.90
16901;DHT22;8567;52.540;6.434;2024-01-06T08:17:42;18.10;54.70
16901;DHT22;8567;52.540;6.434;2024-01-06T08:20:09;18.20;54.50
16901;DHT22;8567;52.540;6.434;2024-01-06T08:22:36;18.10;54.50
16901;DHT22;8567;52.540;6.434;2024-01-06T08:25:05;18.20;54.50
16901;DHT22;8567;52.540;6.434;2024-01-06T08:27:33;18.10;54.40
16901;DHT22;8567;52.540;6.434;2024-01-06T08:30:00;18.10;54.40
16901;DHT22;8567;52.540;6.434;2024-01-06T08:32:27;18.20;54.20
16901;DHT22;8567;52.540;6.434;2024-01-06T08:34:54;18.20;54.30
16901;DHT22;8567;52.540;6.434;2024-01-06T08:37:21;18.20;54.20
16901;DHT22;8567;52.540;6.434;2024-01-06T08:39:48;18.20;54.30
16901;DHT22;8567;52.540;6.434;2024-01-06T08:42:16;18.20;54.20
16901;DHT22;8567;52.540;6.434;2024-01-06T08:44:44;18.20;54.00
16901;DHT22;8567;52.540;6.434;2024-01-06T08:47:11;18.10;54.00
16901;DHT22;8567;52.540;6.434;2024-01-06T08:49:38;18.10;53.90
16901;DHT22;8567;52.540;6.434;2024-01-06T08:52:05;18.20;53.90
16901;DHT22;8567;52.540;6.434;2024-01-06T08:54:32;18.20;53.90
16901;DHT22;8567;52.540;6.434;2024-01-06T08:57:00;18.20;53.90
16901;DHT22;8567;52.540;6.434;2024-01-06T08:59:28;18.20;53.70
16901;DHT22;8567;52.540;6.434;2024-01-06T09:01:55;18.20;53.80
16901;DHT22;8567;52.540;6.434;2024-01-06T09:04:22;18.20;53.70
16901;DHT22;8567;52.540;6.434;2024-01-06T09:06:56;18.20;53.90
16901;DHT22;8567;52.540;6.434;2024-01-06T09:09:24;18.20;53.90
16901;DHT22;8567;52.540;6.434;2024-01-06T09:11:51;18.10;54.10
16901;DHT22;8567;52.540;6.434;2024-01-06T09:14:18;18.10;54.10
16901;DHT22;8567;52.540;6.434;2024-01-06T09:16:46;18.10;54.30
16901;DHT22;8567;52.540;6.434;2024-01-06T09:19:14;18.10;54.60
16901;DHT22;8567;52.540;6.434;2024-01-06T09:21:41;18.10;54.70
16901;DHT22;8567;52.540;6.434;2024-01-06T09:24:08;18.10;54.90
16901;DHT22;8567;52.540;6.434;2024-01-06T09:26:35;18.10;55.00
16901;DHT22;8567;52.540;6.434;2024-01-06T09:29:02;18.20;55.20
16901;DHT22;8567;52.540;6.434;2024-01-06T09:31:30;18.10;55.40
16901;DHT22;8567;52.540;6.434;2024-01-06T09:34:00;18.10;55.60
16901;DHT22;8567;52.540;6.434;2024-01-06T09:36:28;18.10;55.70
16901;DHT22;8567;52.540;6.434;2024-01-06T09:38:55;18.10;55.90
16901;DHT22;8567;52.540;6.434;2024-01-06T09:41:22;18.10;55.90
16901;DHT22;8567;52.540;6.434;2024-01-06T09:43:50;18.10;56.00
16901;DHT22;8567;52.540;6.434;2024-01-06T09:46:23;18.20;56.10
16901;DHT22;8567;52.540;6.434;2024-01-06T09:48:52;18.10;56.20
16901;DHT22;8567;52.540;6.434;2024-01-06T09:51:22;18.10;56.30
16901;DHT22;8567;52.540;6.434;2024-01-06T09:53:57;18.20;56.40
16901;DHT22;8567;52.540;6.434;2024-01-06T09:56:25;18.10;56.50
16901;DHT22;8567;52.540;6.434;2024-01-06T09:58:53;18.20;56.60
16901;DHT22;8567;52.540;6.434;2024-01-06T10:01:20;18.20;56.60
16901;DHT22;8567;52.540;6.434;2024-01-06T10:03:47;18.10;56.60
16901;DHT22;8567;52.540;6.434;2024-01-06T10:06:15;18.10;56.70
16901;DHT22;8567;52.540;6.434;2024-01-06T10:08:44;18.10;56.80
16901;DHT22;8567;52.540;6.434;2024-01-06T10:11:10;18.20;56.90
16901;DHT22;8567;52.540;6.434;2024-01-06T10:13:38;18.10;56.90
16901;DHT22;8567;52.540;6.434;2024-01-06T10:16:06;18.10;57.00
16901;DHT22;8567;52.540;6.434;2024-01-06T10:18:34;18.20;57.10
16901;DHT22;8567;52.540;6.434;2024-01-06T10:21:03;18.10;57.00
16901;DHT22;8567;52.540;6.434;2024-01-06T10:23:31;18.10;57.10
16901;DHT22;8567;52.540;6.434;2024-01-06T10:26:00;18.20;57.20
16901;DHT22;8567;52.540;6.434;2024-01-06T10:28:27;18.20;57.20
16901;DHT22;8567;52.540;6.434;2024-01-06T10:30:55;18.20;57.30
16901;DHT22;8567;52.540;6.434;2024-01-06T10:33:23;18.10;57.30
16901;DHT22;8567;52.540;6.434;2024-01-06T10:35:50;18.20;57.30
16901;DHT22;8567;52.540;6.434;2024-01-06T10:38:17;18.10;57.40
16901;DHT22;8567;52.540;6.434;2024-01-06T10:40:56;18.20;57.40
16901;DHT22;8567;52.540;6.434;2024-01-06T10:43:26;18.20;57.40
16901;DHT22;8567;52.540;6.434;2024-01-06T10:45:55;18.20;57.50
16901;DHT22;8567;52.540;6.434;2024-01-06T10:48:24;18.20;57.50
16901;DHT22;8567;52.540;6.434;2024-01-06T10:50:52;18.20;57.50
16901;DHT22;8567;52.540;6.434;2024-01-06T10:53:21;18.10;57.50
16901;DHT22;8567;52.540;6.434;2024-01-06T10:55:49;18.20;57.60
16901;DHT22;8567;52.540;6.434;2024-01-06T10:58:19;18.20;57.60
16901;DHT22;8567;52.540;6.434;2024-01-06T11:00:47;18.20;57.50
16901;DHT22;8567;52.540;6.434;2024-01-06T11:03:14;18.20;57.50
16901;DHT22;8567;52.540;6.434;2024-01-06T11:05:42;18.10;57.50
16901;DHT22;8567;52.540;6.434;2024-01-06T11:08:09;18.20;57.60
16901;DHT22;8567;52.540;6.434;2024-01-06T11:10:37;18.20;57.70
16901;DHT22;8567;52.540;6.434;2024-01-06T11:13:09;18.10;57.60
16901;DHT22;8567;52.540;6.434;2024-01-06T11:15:45;18.10;57.20
16901;DHT22;8567;52.540;6.434;2024-01-06T11:18:33;18.20;57.20
16901;DHT22;8567;52.540;6.434;2024-01-06T11:21:19;18.20;57.30
16901;DHT22;8567;52.540;6.434;2024-01-06T11:24:09;18.20;57.30
16901;DHT22;8567;52.540;6.434;2024-01-06T11:26:38;18.20;57.50
16901;DHT22;8567;52.540;6.434;2024-01-06T11:29:06;18.20;57.80
16901;DHT22;8567;52.540;6.434;2024-01-06T11:31:36;18.20;57.60
16901;DHT22;8567;52.540;6.434;2024-01-06T11:34:15;18.20;57.30
16901;DHT22;8567;52.540;6.434;2024-01-06T11:36:44;18.20;57.20
16901;DHT22;8567;52.540;6.434;2024-01-06T11:39:35;18.20;57.20
16901;DHT22;8567;52.540;6.434;2024-01-06T11:42:04;18.20;57.30
16901;DHT22;8567;52.540;6.434;2024-01-06T11:44:33;18.20;57.30
16901;DHT22;8567;52.540;6.434;2024-01-06T11:47:01;18.20;57.30
16901;DHT22;8567;52.540;6.434;2024-01-06T11:49:30;18.20;57.40
16901;DHT22;8567;52.540;6.434;2024-01-06T11:51:57;18.20;57.40
16901;DHT22;8567;52.540;6.434;2024-01-06T11:54:25;18.20;57.40
16901;DHT22;8567;52.540;6.434;2024-01-06T11:56:51;18.20;57.50
16901;DHT22;8567;52.540;6.434;2024-01-06T11:59:19;18.20;57.50
16901;DHT22;8567;52.540;6.434;2024-01-06T12:01:46;18.20;57.50
16901;DHT22;8567;52.540;6.434;2024-01-06T12:04:14;18.20;57.50
16901;DHT22;8567;52.540;6.434;2024-01-06T12:06:43;18.20;57.50
16901;DHT22;8567;52.540;6.434;2024-01-06T12:09:12;18.20;57.60
16901;DHT22;8567;52.540;6.434;2024-01-06T12:11:41;18.20;57.60
16901;DHT22;8567;52.540;6.434;2024-01-06T12:14:10;18.20;57.70
16901;DHT22;8567;52.540;6.434;2024-01-06T12:16:38;18.20;57.60
16901;DHT22;8567;52.540;6.434;2024-01-06T12:19:05;18.20;57.60
16901;DHT22;8567;52.540;6.434;2024-01-06T12:21:33;18.20;57.60
16901;DHT22;8567;52.540;6.434;2024-01-06T12:24:15;18.20;57.70
16901;DHT22;8567;52.540;6.434;2024-01-06T12:26:46;18.20;57.60
16901;DHT22;8567;52.540;6.434;2024-01-06T12:29:13;18.20;57.50
16901;DHT22;8567;52.540;6.434;2024-01-06T12:31:40;18.20;57.50
16901;DHT22;8567;52.540;6.434;2024-01-06T12:34:08;18.20;57.50
16901;DHT22;8567;52.540;6.434;2024-01-06T12:36:37;18.20;57.40
16901;DHT22;8567;52.540;6.434;2024-01-06T12:39:04;18.20;57.40
16901;DHT22;8567;52.540;6.434;2024-01-06T12:41:33;18.20;57.40
16901;DHT22;8567;52.540;6.434;2024-01-06T12:44:02;18.20;57.50
16901;DHT22;8567;52.540;6.434;2024-01-06T12:46:29;18.20;57.50
16901;DHT22;8567;52.540;6.434;2024-01-06T12:48:57;18.20;57.60
16901;DHT22;8567;52.540;6.434;2024-01-06T12:51:24;18.20;57.60
16901;DHT22;8567;52.540;6.434;2024-01-06T12:53:51;18.20;57.60
16901;DHT22;8567;52.540;6.434;2024-01-06T12:56:18;18.20;57.60
16901;DHT22;8567;52.540;6.434;2024-01-06T12:58:46;18.20;57.70
16901;DHT22;8567;52.540;6.434;2024-01-06T13:01:13;18.20;57.70
16901;DHT22;8567;52.540;6.434;2024-01-06T13:03:40;18.20;57.70
16901;DHT22;8567;52.540;6.434;2024-01-06T13:06:07;18.20;57.60
16901;DHT22;8567;52.540;6.434;2024-01-06T13:08:34;18.20;57.70
16901;DHT22;8567;52.540;6.434;2024-01-06T13:11:02;18.20;57.80
16901;DHT22;8567;52.540;6.434;2024-01-06T13:13:29;18.20;57.70
16901;DHT22;8567;52.540;6.434;2024-01-06T13:16:00;18.20;57.70
16901;DHT22;8567;52.540;6.434;2024-01-06T13:18:27;18.20;57.70
16901;DHT22;8567;52.540;6.434;2024-01-06T13:20:55;18.20;57.70
16901;DHT22;8567;52.540;6.434;2024-01-06T13:23:22;18.20;57.70
16901;DHT22;8567;52.540;6.434;2024-01-06T13:25:49;18.20;57.70
16901;DHT22;8567;52.540;6.434;2024-01-06T13:28:16;18.20;57.70
16901;DHT22;8567;52.540;6.434;2024-01-06T13:30:43;18.20;57.80
16901;DHT22;8567;52.540;6.434;2024-01-06T13:33:11;18.20;57.70
16901;DHT22;8567;52.540;6.434;2024-01-06T13:35:38;18.20;57.70
16901;DHT22;8567;52.540;6.434;2024-01-06T13:38:05;18.20;57.80
16901;DHT22;8567;52.540;6.434;2024-01-06T13:40:34;18.20;57.80
16901;DHT22;8567;52.540;6.434;2024-01-06T13:43:01;18.20;57.80
16901;DHT22;8567;52.540;6.434;2024-01-06T13:45:30;18.20;57.80
16901;DHT22;8567;52.540;6.434;2024-01-06T13:47:57;18.20;57.70
16901;DHT22;8567;52.540;6.434;2024-01-06T13:50:26;18.20;57.80
16901;DHT22;8567;52.540;6.434;2024-01-06T13:52:52;18.20;57.80
16901;DHT22;8567;52.540;6.434;2024-01-06T13:55:20;18.20;57.80
16901;DHT22;8567;52.540;6.434;2024-01-06T13:57:46;18.20;57.80
16901;DHT22;8567;52.540;6.434;2024-01-06T14:00:14;18.20;57.70
16901;DHT22;8567;52.540;6.434;2024-01-06T14:02:44;18.20;57.70
16901;DHT22;8567;52.540;6.434;2024-01-06T14:05:12;18.20;57.70
16901;DHT22;8567;52.540;6.434;2024-01-06T14:07:41;18.20;57.70
16901;DHT22;8567;52.540;6.434;2024-01-06T14:10:11;18.20;57.60
16901;DHT22;8567;52.540;6.434;2024-01-06T14:12:39;18.20;57.70
16901;DHT22;8567;52.540;6.434;2024-01-06T14:15:07;18.20;57.70
16901;DHT22;8567;52.540;6.434;2024-01-06T14:17:34;18.20;57.70
16901;DHT22;8567;52.540;6.434;2024-01-06T14:20:01;18.20;57.70
16901;DHT22;8567;52.540;6.434;2024-01-06T14:22:29;18.20;57.80
16901;DHT22;8567;52.540;6.434;2024-01-06T14:24:57;18.20;57.70
16901;DHT22;8567;52.540;6.434;2024-01-06T14:27:24;18.20;57.70
16901;DHT22;8567;52.540;6.434;2024-01-06T14:29:54;18.20;57.70
16901;DHT22;8567;52.540;6.434;2024-01-06T14:32:23;18.20;57.80
16901;DHT22;8567;52.540;6.434;2024-01-06T14:34:49;18.20;57.80
16901;DHT22;8567;52.540;6.434;2024-01-06T14:37:17;18.20;57.80
16901;DHT22;8567;52.540;6.434;2024-01-06T14:39:44;18.20;57.80
16901;DHT22;8567;52.540;6.434;2024-01-06T14:42:12;18.20;57.80
16901;DHT22;8567;52.540;6.434;2024-01-06T14:44:39;18.20;57.80
16901;DHT22;8567;52.540;6.434;2024-01-06T14:47:06;18.20;57.80
16901;DHT22;8567;52.540;6.434;2024-01-06T14:49:33;18.20;57.80
16901;DHT22;8567;52.540;6.434;2024-01-06T14:52:00;18.20;57.90
16901;DHT22;8567;52.540;6.434;2024-01-06T14:54:29;18.20;57.80
16901;DHT22;8567;52.540;6.434;2024-01-06T14:56:59;18.20;57.90
16901;DHT22;8567;52.540;6.434;2024-01-06T14:59:27;18.20;57.80
16901;DHT22;8567;52.540;6.434;2024-01-06T15:01:54;18.20;57.90
16901;DHT22;8567;52.540;6.434;2024-01-06T15:04:21;18.20;57.80
16901;DHT22;8567;52.540;6.434;2024-01-06T15:06:48;18.20;57.80
16901;DHT22;8567;52.540;6.434;2024-01-06T15:09:16;18.20;57.90
16901;DHT22;8567;52.540;6.434;2024-01-06T15:11:43;18.20;57.90
16901;DHT22;8567;52.540;6.434;2024-01-06T15:14:10;18.20;57.80
16901;DHT22;8567;52.540;6.434;2024-01-06T15:16:39;18.20;57.90
16901;DHT22;8567;52.540;6.434;2024-01-06T15:19:06;18.20;57.90
16901;DHT22;8567;52.540;6.434;2024-01-06T15:21:33;18.20;57.90
16901;DHT22;8567;52.540;6.434;2024-01-06T15:23:59;18.20;57.90
16901;DHT22;8567;52.540;6.434;2024-01-06T15:26:26;18.20;57.90
16901;DHT22;8567;52.540;6.434;2024-01-06T15:28:54;18.10;57.90
16901;DHT22;8567;52.540;6.434;2024-01-06T15:31:24;18.20;57.90
16901;DHT22;8567;52.540;6.434;2024-01-06T15:33:52;18.20;57.90
16901;DHT22;8567;52.540;6.434;2024-01-06T15:36:19;18.20;57.90
16901;DHT22;8567;52.540;6.434;2024-01-06T15:38:45;18.20;57.90
16901;DHT22;8567;52.540;6.434;2024-01-06T15:41:13;18.20;57.90
16901;DHT22;8567;52.540;6.434;2024-01-06T15:43:40;18.20;57.90
16901;DHT22;8567;52.540;6.434;2024-01-06T15:46:07;18.20;57.90
16901;DHT22;8567;52.540;6.434;2024-01-06T15:48:34;18.20;58.00